Meteo Giornale » Osservazioni meteo Italia » Firenze-Peretola

ore: 19:50 - Osservazioni Meteo Firenze-Peretola
Lat. 43° 48' N Lon. 11° 12' E Alt. 40 metri s.l.m.

sereno

28 °C

Sereno

Temp. 24 Ore

18 °C

33 °C

Ovest

16.7 Km/h

Dew point 17 °C

Umidità 51 %

Visibilità  10 Km

Il sole sorge alle ore 06:37

Il sole tramonta alle ore 19:53

Data e Ora Cielo e Fenomeni T °C DP °C Um. % Pres. hPa Vis. km Vento km/h
Oggi h: 19:50 sereno Sereno 28 17 51 1015 10 O 16.7
Oggi h: 19:20 sereno Sereno 29 16 45 1015 10 O 16.7
Oggi h: 18:50 sereno Sereno 30 16 42 1015 10 O/SO 22.2
Oggi h: 18:20 sereno Sereno 30 17 45 1015 10 O 20.3
Oggi h: 17:50 sereno Sereno 31 17 43 1015 10 O 20.3
Oggi h: 17:20 sereno Sereno 31 18 45 1015 10 O/SO 18.5
Oggi h: 16:50 poco_nuvoloso Poco Nuvoloso 31 18 45 1015 10 O/SO 20.3
Oggi h: 16:20 poco_nuvoloso Poco Nuvoloso 32 19 46 1015 10 O/SO 18.5
Oggi h: 15:50 nuvoloso Nuvoloso 33 19 43 1015 10 O 16.7
Oggi h: 15:20 nuvoloso Nuvoloso 31 18 45 1015 10 O 13
Oggi h: 14:50 sereno Sereno 31 19 48 1015 10 O/SO 14.8
Oggi h: 14:20 sereno Sereno 31 18 45 1015 10 SO 13
Oggi h: 11:50 sereno Sereno 27 19 61 1016 10 N 7.4
Oggi h: 11:20 sereno Sereno 26 19 65 1016 10 N 5.5
Oggi h: 10:50 poco_nuvoloso Poco Nuvoloso 26 19 65 1016 10 N 3.7
Oggi h: 10:20 nuvoloso Nuvoloso 25 19 69 1016 10 N 1.8
Oggi h: 09:50 molto_nuvoloso Molto Nuvoloso 24 19 73 1016 10 N 3.7
Oggi h: 09:20 molto_nuvoloso Molto Nuvoloso 23 18 73 1016 10 N 3.7
Oggi h: 08:50 molto_nuvoloso Molto Nuvoloso 22 19 83 1016 10 N 1.8
Oggi h: 08:20 molto_nuvoloso Molto Nuvoloso 21 18 82 1016 10 N 1.8
Oggi h: 07:50 molto_nuvoloso Molto Nuvoloso 21 19 88 1016 10 N 1.8
Oggi h: 07:20 nuvoloso Nuvoloso 19 18 93 1016 10 N 3.7
Oggi h: 06:50 molto_nuvoloso Molto Nuvoloso 20 18 88 1015 10 N 3.7
Oggi h: 06:20 poco_nuvoloso Poco Nuvoloso 18 18 100 1015 10 N 1.8
Oggi h: 05:50 poco_nuvoloso Poco Nuvoloso 19 18 93 1015 10 N 1.8
Oggi h: 05:20 nuvoloso Nuvoloso 19 18 93 1015 10 N 5.5
Oggi h: 04:50 nuvoloso Nuvoloso 18 18 100 1015 10 N 3.7
Oggi h: 04:20 sereno Sereno 19 18 93 1015 10 N 1.8
Oggi h: 03:50 sereno Sereno 19 18 93 1015 10 E 7.4
Oggi h: 03:20 sereno Sereno 20 18 88 1015 10 N 3.7
Oggi h: 02:50 sereno Sereno 20 17 82 1015 10 N 5.5
Oggi h: 02:20 sereno Sereno 20 17 82 1015 10 E 7.4
Oggi h: 01:50 sereno Sereno 20 17 82 1015 10 E 7.4
Oggi h: 01:20 sereno Sereno 21 18 82 1015 10 N 5.5
Oggi h: 00:50 sereno Sereno 21 17 77 1015 10 N 5.5
Oggi h: 00:20 sereno Sereno 22 18 78 1015 10 N 3.7
Ieri h: 23:50 sereno Sereno 23 19 78 1015 10 N 5.5
Ieri h: 23:20 sereno Sereno 24 19 73 1015 10 N 3.7
Ieri h: 22:50 sereno Sereno 23 18 73 1015 10 E/SE 7.4
Ieri h: 22:20 sereno Sereno 25 18 65 1014 10 O/SO 7.4
Ieri h: 21:50 sereno Sereno 24 17 64 1014 10 N 3.7
Ieri h: 21:20 sereno Sereno 25 17 61 1014 10 N 5.5
Ieri h: 20:50 sereno Sereno 27 17 54 1014 10 N 3.7